sensor_id;sensor_type;location;lat;lon;timestamp;pressure;altitude;pressure_sealevel;temperature;humidity
44351;BME280;62766;62.622;17.912;2023-01-15T00:00:26;99156.66;;;-1.04;61.37
44351;BME280;62766;62.622;17.912;2023-01-15T00:02:54;99145.90;;;-1.03;61.50
44351;BME280;62766;62.622;17.912;2023-01-15T00:05:22;99152.03;;;-1.03;61.41
44351;BME280;62766;62.622;17.912;2023-01-15T00:07:51;99151.50;;;-1.02;61.49
44351;BME280;62766;62.622;17.912;2023-01-15T00:10:19;99144.07;;;-1.05;61.62
44351;BME280;62766;62.622;17.912;2023-01-15T00:12:48;99137.78;;;-1.14;61.43
44351;BME280;62766;62.622;17.912;2023-01-15T00:15:18;99131.79;;;-1.17;61.61
44351;BME280;62766;62.622;17.912;2023-01-15T00:17:46;99129.48;;;-1.18;61.83
44351;BME280;62766;62.622;17.912;2023-01-15T00:20:15;99124.76;;;-1.24;61.81
44351;BME280;62766;62.622;17.912;2023-01-15T00:22:44;99116.71;;;-1.29;61.90
44351;BME280;62766;62.622;17.912;2023-01-15T00:25:13;99111.44;;;-1.26;62.10
44351;BME280;62766;62.622;17.912;2023-01-15T00:27:42;99109.06;;;-1.24;62.07
44351;BME280;62766;62.622;17.912;2023-01-15T00:30:13;99109.02;;;-1.26;62.17
44351;BME280;62766;62.622;17.912;2023-01-15T00:32:44;99101.94;;;-1.22;61.92
44351;BME280;62766;62.622;17.912;2023-01-15T00:35:14;99098.45;;;-1.12;61.82
44351;BME280;62766;62.622;17.912;2023-01-15T00:37:45;99095.88;;;-1.11;61.55
44351;BME280;62766;62.622;17.912;2023-01-15T00:40:17;99093.53;;;-1.10;61.51
44351;BME280;62766;62.622;17.912;2023-01-15T00:42:46;99085.76;;;-1.10;61.54
44351;BME280;62766;62.622;17.912;2023-01-15T00:45:15;99083.18;;;-1.15;61.40
44351;BME280;62766;62.622;17.912;2023-01-15T00:47:45;99078.01;;;-1.27;61.28
44351;BME280;62766;62.622;17.912;2023-01-15T00:50:14;99075.00;;;-1.23;61.37
44351;BME280;62766;62.622;17.912;2023-01-15T00:52:43;99068.14;;;-1.20;61.32
44351;BME280;62766;62.622;17.912;2023-01-15T00:55:12;99061.94;;;-1.41;61.31
44351;BME280;62766;62.622;17.912;2023-01-15T00:57:41;99058.43;;;-1.43;61.19
44351;BME280;62766;62.622;17.912;2023-01-15T01:00:10;99056.71;;;-1.51;61.35
44351;BME280;62766;62.622;17.912;2023-01-15T01:02:40;99055.78;;;-1.56;61.30
44351;BME280;62766;62.622;17.912;2023-01-15T01:05:08;99053.91;;;-1.53;61.34
44351;BME280;62766;62.622;17.912;2023-01-15T01:07:37;99051.71;;;-1.54;61.45
44351;BME280;62766;62.622;17.912;2023-01-15T01:10:06;99048.02;;;-1.46;61.40
44351;BME280;62766;62.622;17.912;2023-01-15T01:12:35;99042.29;;;-1.39;61.50
44351;BME280;62766;62.622;17.912;2023-01-15T01:15:05;99045.01;;;-1.31;61.55
44351;BME280;62766;62.622;17.912;2023-01-15T01:17:35;99045.22;;;-1.36;61.60
44351;BME280;62766;62.622;17.912;2023-01-15T01:20:05;99042.64;;;-1.42;61.58
44351;BME280;62766;62.622;17.912;2023-01-15T01:22:33;99039.68;;;-1.48;61.54
44351;BME280;62766;62.622;17.912;2023-01-15T01:25:01;99036.65;;;-1.56;61.81
44351;BME280;62766;62.622;17.912;2023-01-15T01:27:30;99033.78;;;-1.48;62.02
44351;BME280;62766;62.622;17.912;2023-01-15T01:29:58;99022.58;;;-1.56;62.23
44351;BME280;62766;62.622;17.912;2023-01-15T01:32:27;99015.83;;;-1.58;62.20
44351;BME280;62766;62.622;17.912;2023-01-15T01:34:55;99010.30;;;-1.59;62.51
44351;BME280;62766;62.622;17.912;2023-01-15T01:37:24;99006.76;;;-1.68;62.88
44351;BME280;62766;62.622;17.912;2023-01-15T01:39:52;99005.95;;;-1.61;62.98
44351;BME280;62766;62.622;17.912;2023-01-15T01:42:21;99002.22;;;-1.57;63.02
44351;BME280;62766;62.622;17.912;2023-01-15T01:45:00;98998.62;;;-1.65;63.09
44351;BME280;62766;62.622;17.912;2023-01-15T01:47:31;98998.68;;;-1.59;63.19
44351;BME280;62766;62.622;17.912;2023-01-15T01:50:04;98991.91;;;-1.48;63.26
44351;BME280;62766;62.622;17.912;2023-01-15T01:52:38;98990.35;;;-1.45;63.26
44351;BME280;62766;62.622;17.912;2023-01-15T01:55:09;98981.33;;;-1.49;63.29
44351;BME280;62766;62.622;17.912;2023-01-15T01:57:40;98975.00;;;-1.37;63.30
44351;BME280;62766;62.622;17.912;2023-01-15T02:00:11;98967.98;;;-1.34;63.24
44351;BME280;62766;62.622;17.912;2023-01-15T02:02:42;98965.28;;;-1.46;63.27
44351;BME280;62766;62.622;17.912;2023-01-15T02:05:14;98959.53;;;-1.41;63.37
44351;BME280;62766;62.622;17.912;2023-01-15T02:07:45;98957.85;;;-1.45;63.54
44351;BME280;62766;62.622;17.912;2023-01-15T02:10:15;98950.85;;;-1.55;63.69
44351;BME280;62766;62.622;17.912;2023-01-15T02:12:49;98941.45;;;-1.58;63.89
44351;BME280;62766;62.622;17.912;2023-01-15T02:15:26;98933.81;;;-1.52;63.88
44351;BME280;62766;62.622;17.912;2023-01-15T02:18:00;98926.49;;;-1.56;63.83
44351;BME280;62766;62.622;17.912;2023-01-15T02:20:36;98920.30;;;-1.64;64.19
44351;BME280;62766;62.622;17.912;2023-01-15T02:23:32;98907.33;;;-1.59;64.39
44351;BME280;62766;62.622;17.912;2023-01-15T02:26:18;98886.70;;;-1.60;64.51
44351;BME280;62766;62.622;17.912;2023-01-15T02:28:53;98879.00;;;-1.60;64.73
44351;BME280;62766;62.622;17.912;2023-01-15T02:31:26;98882.12;;;-1.49;65.09
44351;BME280;62766;62.622;17.912;2023-01-15T02:33:58;98877.53;;;-1.51;64.97
44351;BME280;62766;62.622;17.912;2023-01-15T02:36:31;98870.19;;;-1.41;64.95
44351;BME280;62766;62.622;17.912;2023-01-15T02:39:03;98859.48;;;-1.50;65.09
44351;BME280;62766;62.622;17.912;2023-01-15T02:41:37;98854.15;;;-1.41;65.37
44351;BME280;62766;62.622;17.912;2023-01-15T02:44:08;98850.02;;;-1.47;65.44
44351;BME280;62766;62.622;17.912;2023-01-15T02:46:40;98840.60;;;-1.30;65.52
44351;BME280;62766;62.622;17.912;2023-01-15T02:49:15;98828.10;;;-1.25;65.30
44351;BME280;62766;62.622;17.912;2023-01-15T02:51:50;98818.07;;;-1.33;65.35
44351;BME280;62766;62.622;17.912;2023-01-15T02:54:22;98813.07;;;-1.35;65.47
44351;BME280;62766;62.622;17.912;2023-01-15T02:56:54;98815.28;;;-1.32;65.47
44351;BME280;62766;62.622;17.912;2023-01-15T02:59:29;98816.44;;;-1.39;65.58
44351;BME280;62766;62.622;17.912;2023-01-15T03:02:04;98812.68;;;-1.28;65.51
44351;BME280;62766;62.622;17.912;2023-01-15T03:04:38;98805.36;;;-1.43;65.50
44351;BME280;62766;62.622;17.912;2023-01-15T03:07:13;98794.21;;;-1.31;65.54
44351;BME280;62766;62.622;17.912;2023-01-15T03:09:43;98785.54;;;-1.35;65.51
44351;BME280;62766;62.622;17.912;2023-01-15T03:12:16;98777.02;;;-1.45;65.74
44351;BME280;62766;62.622;17.912;2023-01-15T03:14:52;98772.78;;;-1.47;66.40
44351;BME280;62766;62.622;17.912;2023-01-15T03:17:32;98765.32;;;-1.56;66.67
44351;BME280;62766;62.622;17.912;2023-01-15T03:20:08;98756.84;;;-1.69;66.93
44351;BME280;62766;62.622;17.912;2023-01-15T03:22:43;98747.20;;;-1.66;67.36
44351;BME280;62766;62.622;17.912;2023-01-15T03:25:18;98731.78;;;-1.70;67.52
44351;BME280;62766;62.622;17.912;2023-01-15T03:27:51;98717.29;;;-1.65;67.53
44351;BME280;62766;62.622;17.912;2023-01-15T03:30:22;98708.77;;;-1.71;67.77
44351;BME280;62766;62.622;17.912;2023-01-15T03:32:53;98703.35;;;-1.81;68.08
44351;BME280;62766;62.622;17.912;2023-01-15T03:35:43;98697.37;;;-1.78;68.54
44351;BME280;62766;62.622;17.912;2023-01-15T03:38:17;98688.83;;;-1.70;69.03
44351;BME280;62766;62.622;17.912;2023-01-15T03:40:52;98684.94;;;-1.72;69.45
44351;BME280;62766;62.622;17.912;2023-01-15T03:43:30;98675.33;;;-1.72;69.78
44351;BME280;62766;62.622;17.912;2023-01-15T03:46:09;98657.14;;;-1.58;69.95
44351;BME280;62766;62.622;17.912;2023-01-15T03:48:45;98647.40;;;-1.59;70.10
44351;BME280;62766;62.622;17.912;2023-01-15T03:51:22;98639.56;;;-1.33;70.33
44351;BME280;62766;62.622;17.912;2023-01-15T03:53:54;98629.57;;;-1.30;70.45
44351;BME280;62766;62.622;17.912;2023-01-15T03:56:31;98622.47;;;-1.18;70.69
44351;BME280;62766;62.622;17.912;2023-01-15T03:59:05;98616.02;;;-1.10;70.89
44351;BME280;62766;62.622;17.912;2023-01-15T04:01:38;98603.08;;;-1.04;71.30
44351;BME280;62766;62.622;17.912;2023-01-15T04:04:11;98598.45;;;-1.02;71.40
44351;BME280;62766;62.622;17.912;2023-01-15T04:06:42;98598.74;;;-0.94;71.46
44351;BME280;62766;62.622;17.912;2023-01-15T04:09:12;98591.31;;;-1.02;71.46
44351;BME280;62766;62.622;17.912;2023-01-15T04:11:40;98587.70;;;-1.00;71.84
44351;BME280;62766;62.622;17.912;2023-01-15T04:14:11;98586.50;;;-0.99;73.00
44351;BME280;62766;62.622;17.912;2023-01-15T04:16:40;98586.15;;;-0.83;73.85
44351;BME280;62766;62.622;17.912;2023-01-15T04:19:09;98578.33;;;-0.61;74.21
44351;BME280;62766;62.622;17.912;2023-01-15T04:21:37;98576.36;;;-0.55;74.43
44351;BME280;62766;62.622;17.912;2023-01-15T04:24:06;98571.65;;;-0.45;74.58
44351;BME280;62766;62.622;17.912;2023-01-15T04:26:34;98565.73;;;-0.34;74.52
44351;BME280;62766;62.622;17.912;2023-01-15T04:29:03;98557.68;;;-0.30;74.44
44351;BME280;62766;62.622;17.912;2023-01-15T04:31:31;98550.16;;;-0.28;74.48
44351;BME280;62766;62.622;17.912;2023-01-15T04:34:00;98538.87;;;-0.20;74.63
44351;BME280;62766;62.622;17.912;2023-01-15T04:36:28;98527.03;;;-0.32;74.85
44351;BME280;62766;62.622;17.912;2023-01-15T04:38:56;98514.75;;;-0.15;75.14
44351;BME280;62766;62.622;17.912;2023-01-15T04:41:25;98504.87;;;-0.12;75.40
44351;BME280;62766;62.622;17.912;2023-01-15T04:43:53;98494.95;;;-0.20;75.55
44351;BME280;62766;62.622;17.912;2023-01-15T04:46:22;98481.67;;;-0.06;75.54
44351;BME280;62766;62.622;17.912;2023-01-15T04:48:52;98464.95;;;-0.11;75.60
44351;BME280;62766;62.622;17.912;2023-01-15T04:51:21;98467.96;;;-0.14;75.92
44351;BME280;62766;62.622;17.912;2023-01-15T04:53:49;98466.87;;;-0.15;75.97
44351;BME280;62766;62.622;17.912;2023-01-15T04:56:18;98467.91;;;-0.00;76.17
44351;BME280;62766;62.622;17.912;2023-01-15T04:58:46;98462.20;;;-0.06;76.26
44351;BME280;62766;62.622;17.912;2023-01-15T05:03:33;98449.56;;;-0.00;76.57
44351;BME280;62766;62.622;17.912;2023-01-15T05:06:02;98443.47;;;-0.05;76.89
44351;BME280;62766;62.622;17.912;2023-01-15T05:08:32;98432.18;;;-0.14;76.96
44351;BME280;62766;62.622;17.912;2023-01-15T05:11:01;98416.71;;;-0.01;76.94
44351;BME280;62766;62.622;17.912;2023-01-15T05:13:31;98409.15;;;-0.07;77.06
44351;BME280;62766;62.622;17.912;2023-01-15T05:16:07;98400.89;;;0.03;77.15
44351;BME280;62766;62.622;17.912;2023-01-15T05:18:36;98395.46;;;-0.03;77.23
44351;BME280;62766;62.622;17.912;2023-01-15T05:21:05;98389.60;;;0.02;77.31
44351;BME280;62766;62.622;17.912;2023-01-15T05:23:33;98382.79;;;-0.10;77.28
44351;BME280;62766;62.622;17.912;2023-01-15T05:26:02;98360.92;;;-0.06;77.40
44351;BME280;62766;62.622;17.912;2023-01-15T05:28:31;98345.14;;;-0.03;77.67
44351;BME280;62766;62.622;17.912;2023-01-15T05:31:05;98345.22;;;-0.08;77.83
44351;BME280;62766;62.622;17.912;2023-01-15T05:33:34;98334.82;;;-0.02;78.28
44351;BME280;62766;62.622;17.912;2023-01-15T05:36:03;98327.86;;;-0.07;78.67
44351;BME280;62766;62.622;17.912;2023-01-15T05:38:32;98315.32;;;-0.04;79.08
44351;BME280;62766;62.622;17.912;2023-01-15T05:41:03;98312.08;;;-0.02;79.55
44351;BME280;62766;62.622;17.912;2023-01-15T05:43:31;98303.68;;;-0.10;79.82
44351;BME280;62766;62.622;17.912;2023-01-15T05:46:00;98292.45;;;-0.01;80.22
44351;BME280;62766;62.622;17.912;2023-01-15T05:48:29;98286.73;;;-0.02;80.69
44351;BME280;62766;62.622;17.912;2023-01-15T05:51:00;98272.69;;;-0.01;81.04
44351;BME280;62766;62.622;17.912;2023-01-15T05:53:29;98259.22;;;0.12;81.36
44351;BME280;62766;62.622;17.912;2023-01-15T05:55:59;98246.16;;;0.09;81.94
44351;BME280;62766;62.622;17.912;2023-01-15T05:58:27;98236.70;;;0.16;82.34
44351;BME280;62766;62.622;17.912;2023-01-15T06:00:56;98222.63;;;0.13;82.71
44351;BME280;62766;62.622;17.912;2023-01-15T06:03:25;98208.36;;;0.20;82.87
44351;BME280;62766;62.622;17.912;2023-01-15T06:05:55;98198.73;;;0.11;83.37
44351;BME280;62766;62.622;17.912;2023-01-15T06:08:23;98192.34;;;0.21;83.54
44351;BME280;62766;62.622;17.912;2023-01-15T06:10:51;98180.60;;;0.31;83.65
44351;BME280;62766;62.622;17.912;2023-01-15T06:13:20;98168.75;;;0.24;83.82
44351;BME280;62766;62.622;17.912;2023-01-15T06:15:49;98161.37;;;0.30;84.33
44351;BME280;62766;62.622;17.912;2023-01-15T06:18:18;98160.29;;;0.23;84.46
44351;BME280;62766;62.622;17.912;2023-01-15T06:20:47;98151.99;;;0.26;84.64
44351;BME280;62766;62.622;17.912;2023-01-15T06:23:17;98144.21;;;0.33;84.67
44351;BME280;62766;62.622;17.912;2023-01-15T06:25:46;98136.82;;;0.38;84.51
44351;BME280;62766;62.622;17.912;2023-01-15T06:28:14;98123.46;;;0.37;84.37
44351;BME280;62766;62.622;17.912;2023-01-15T06:30:43;98109.09;;;0.43;84.38
44351;BME280;62766;62.622;17.912;2023-01-15T06:33:11;98098.05;;;0.35;84.53
44351;BME280;62766;62.622;17.912;2023-01-15T06:35:39;98092.35;;;0.41;84.34
44351;BME280;62766;62.622;17.912;2023-01-15T06:38:08;98084.94;;;0.46;84.18
44351;BME280;62766;62.622;17.912;2023-01-15T06:40:36;98073.36;;;0.52;84.27
44351;BME280;62766;62.622;17.912;2023-01-15T06:43:05;98061.96;;;0.61;84.21
44351;BME280;62766;62.622;17.912;2023-01-15T06:45:36;98051.58;;;0.59;84.14
44351;BME280;62766;62.622;17.912;2023-01-15T06:48:06;98042.67;;;0.51;84.25
44351;BME280;62766;62.622;17.912;2023-01-15T06:50:35;98028.67;;;0.62;84.36
44351;BME280;62766;62.622;17.912;2023-01-15T06:53:04;98025.87;;;0.58;84.21
44351;BME280;62766;62.622;17.912;2023-01-15T06:55:32;98017.22;;;0.56;84.17
44351;BME280;62766;62.622;17.912;2023-01-15T06:58:01;98007.98;;;0.58;84.26
44351;BME280;62766;62.622;17.912;2023-01-15T07:00:31;98000.86;;;0.57;84.22
44351;BME280;62766;62.622;17.912;2023-01-15T07:03:00;97991.49;;;0.51;84.47
44351;BME280;62766;62.622;17.912;2023-01-15T07:05:28;97985.49;;;0.54;84.82
44351;BME280;62766;62.622;17.912;2023-01-15T07:07:57;97978.64;;;0.48;84.77
44351;BME280;62766;62.622;17.912;2023-01-15T07:10:25;97966.03;;;0.67;84.90
44351;BME280;62766;62.622;17.912;2023-01-15T07:12:53;97959.94;;;0.53;85.17
44351;BME280;62766;62.622;17.912;2023-01-15T07:15:22;97952.39;;;0.61;85.23
44351;BME280;62766;62.622;17.912;2023-01-15T07:17:53;97945.02;;;0.67;85.53
44351;BME280;62766;62.622;17.912;2023-01-15T07:20:23;97937.24;;;0.61;85.45
44351;BME280;62766;62.622;17.912;2023-01-15T07:22:51;97924.09;;;0.64;85.56
44351;BME280;62766;62.622;17.912;2023-01-15T07:25:19;97917.33;;;0.71;85.48
44351;BME280;62766;62.622;17.912;2023-01-15T07:27:47;97910.48;;;0.56;85.39
44351;BME280;62766;62.622;17.912;2023-01-15T07:30:17;97895.40;;;0.65;85.46
44351;BME280;62766;62.622;17.912;2023-01-15T07:32:46;97888.40;;;0.63;85.41
44351;BME280;62766;62.622;17.912;2023-01-15T07:35:15;97876.36;;;0.71;85.49
44351;BME280;62766;62.622;17.912;2023-01-15T07:37:43;97868.15;;;0.64;85.48
44351;BME280;62766;62.622;17.912;2023-01-15T07:40:11;97857.74;;;0.72;85.59
44351;BME280;62766;62.622;17.912;2023-01-15T07:42:40;97847.99;;;0.65;85.44
44351;BME280;62766;62.622;17.912;2023-01-15T07:45:09;97833.97;;;0.83;85.41
44351;BME280;62766;62.622;17.912;2023-01-15T07:47:38;97824.99;;;0.76;85.31
44351;BME280;62766;62.622;17.912;2023-01-15T07:50:11;97816.39;;;0.79;85.29
44351;BME280;62766;62.622;17.912;2023-01-15T07:52:41;97806.93;;;0.77;85.67
44351;BME280;62766;62.622;17.912;2023-01-15T07:55:10;97805.19;;;0.80;85.72
44351;BME280;62766;62.622;17.912;2023-01-15T07:57:38;97782.09;;;0.86;85.60
44351;BME280;62766;62.622;17.912;2023-01-15T08:00:11;97772.21;;;0.81;85.75
44351;BME280;62766;62.622;17.912;2023-01-15T08:02:40;97755.99;;;0.88;85.80
44351;BME280;62766;62.622;17.912;2023-01-15T08:05:09;97753.98;;;0.93;85.79
44351;BME280;62766;62.622;17.912;2023-01-15T08:07:37;97742.40;;;0.85;86.01
44351;BME280;62766;62.622;17.912;2023-01-15T08:10:07;97737.91;;;0.71;86.46
44351;BME280;62766;62.622;17.912;2023-01-15T08:12:35;97720.52;;;0.71;86.74
44351;BME280;62766;62.622;17.912;2023-01-15T08:15:05;97714.90;;;0.83;86.76
44351;BME280;62766;62.622;17.912;2023-01-15T08:17:34;97703.17;;;0.82;86.92
44351;BME280;62766;62.622;17.912;2023-01-15T08:20:04;97693.72;;;0.78;86.87
44351;BME280;62766;62.622;17.912;2023-01-15T08:22:34;97686.05;;;0.72;86.80
44351;BME280;62766;62.622;17.912;2023-01-15T08:25:04;97673.31;;;0.74;86.93
44351;BME280;62766;62.622;17.912;2023-01-15T08:27:33;97664.04;;;0.82;86.86
44351;BME280;62766;62.622;17.912;2023-01-15T08:30:02;97652.95;;;0.89;86.91
44351;BME280;62766;62.622;17.912;2023-01-15T08:32:31;97646.08;;;0.86;86.92
44351;BME280;62766;62.622;17.912;2023-01-15T08:35:00;97636.14;;;0.69;87.15
44351;BME280;62766;62.622;17.912;2023-01-15T08:37:28;97627.33;;;0.83;87.15
44351;BME280;62766;62.622;17.912;2023-01-15T08:39:57;97624.44;;;0.74;87.50
44351;BME280;62766;62.622;17.912;2023-01-15T08:42:25;97616.59;;;0.72;88.04
44351;BME280;62766;62.622;17.912;2023-01-15T08:44:54;97605.49;;;0.77;87.90
44351;BME280;62766;62.622;17.912;2023-01-15T08:47:22;97595.11;;;0.66;88.00
44351;BME280;62766;62.622;17.912;2023-01-15T08:49:51;97582.88;;;0.61;88.14
44351;BME280;62766;62.622;17.912;2023-01-15T08:52:19;97575.01;;;0.84;88.01
44351;BME280;62766;62.622;17.912;2023-01-15T08:54:48;97568.30;;;0.82;87.66
44351;BME280;62766;62.622;17.912;2023-01-15T08:57:17;97560.66;;;0.77;87.77
44351;BME280;62766;62.622;17.912;2023-01-15T08:59:46;97554.02;;;0.73;88.05
44351;BME280;62766;62.622;17.912;2023-01-15T09:02:15;97540.56;;;0.70;87.98
44351;BME280;62766;62.622;17.912;2023-01-15T09:04:43;97535.76;;;0.67;87.82
44351;BME280;62766;62.622;17.912;2023-01-15T09:07:12;97528.60;;;0.67;87.97
44351;BME280;62766;62.622;17.912;2023-01-15T09:09:40;97517.52;;;0.71;88.03
44351;BME280;62766;62.622;17.912;2023-01-15T09:12:09;97513.41;;;0.62;88.05
44351;BME280;62766;62.622;17.912;2023-01-15T09:14:37;97509.49;;;0.67;88.20
44351;BME280;62766;62.622;17.912;2023-01-15T09:17:06;97494.66;;;0.59;88.44
44351;BME280;62766;62.622;17.912;2023-01-15T09:19:34;97486.97;;;0.63;88.27
44351;BME280;62766;62.622;17.912;2023-01-15T09:22:02;97475.31;;;0.75;88.23
44351;BME280;62766;62.622;17.912;2023-01-15T09:24:31;97470.23;;;0.70;87.88
44351;BME280;62766;62.622;17.912;2023-01-15T09:26:59;97464.25;;;0.75;87.76
44351;BME280;62766;62.622;17.912;2023-01-15T09:29:28;97451.28;;;0.74;87.63
44351;BME280;62766;62.622;17.912;2023-01-15T09:31:56;97437.98;;;0.62;87.74
44351;BME280;62766;62.622;17.912;2023-01-15T09:34:25;97429.06;;;0.56;87.69
44351;BME280;62766;62.622;17.912;2023-01-15T09:36:53;97421.81;;;0.67;87.73
44351;BME280;62766;62.622;17.912;2023-01-15T09:39:22;97408.02;;;0.60;87.74
44351;BME280;62766;62.622;17.912;2023-01-15T09:41:59;97406.56;;;0.58;87.98
44351;BME280;62766;62.622;17.912;2023-01-15T09:44:37;97395.06;;;0.55;87.96
44351;BME280;62766;62.622;17.912;2023-01-15T09:47:10;97387.71;;;0.56;87.84
44351;BME280;62766;62.622;17.912;2023-01-15T09:49:58;97372.54;;;0.52;87.79
44351;BME280;62766;62.622;17.912;2023-01-15T09:52:49;97359.73;;;0.45;87.84
44351;BME280;62766;62.622;17.912;2023-01-15T09:55:24;97340.91;;;0.62;87.82
44351;BME280;62766;62.622;17.912;2023-01-15T09:57:58;97331.77;;;0.77;87.53
44351;BME280;62766;62.622;17.912;2023-01-15T10:00:33;97324.12;;;0.68;87.49
44351;BME280;62766;62.622;17.912;2023-01-15T10:03:04;97312.95;;;0.65;87.46
44351;BME280;62766;62.622;17.912;2023-01-15T10:05:40;97303.24;;;0.57;87.53
44351;BME280;62766;62.622;17.912;2023-01-15T10:08:12;97285.47;;;0.63;87.43
44351;BME280;62766;62.622;17.912;2023-01-15T10:10:45;97282.13;;;0.68;87.41
44351;BME280;62766;62.622;17.912;2023-01-15T10:13:21;97269.34;;;0.63;87.38
44351;BME280;62766;62.622;17.912;2023-01-15T10:15:52;97251.66;;;0.69;87.29
44351;BME280;62766;62.622;17.912;2023-01-15T10:18:23;97251.81;;;0.63;87.35
44351;BME280;62766;62.622;17.912;2023-01-15T10:21:07;97233.09;;;0.68;87.34
44351;BME280;62766;62.622;17.912;2023-01-15T10:23:44;97223.78;;;0.53;87.32
44351;BME280;62766;62.622;17.912;2023-01-15T10:26:32;97216.83;;;0.60;87.35
44351;BME280;62766;62.622;17.912;2023-01-15T10:29:05;97207.56;;;0.55;87.57
44351;BME280;62766;62.622;17.912;2023-01-15T10:31:48;97199.47;;;0.56;87.42
44351;BME280;62766;62.622;17.912;2023-01-15T10:35:27;97185.86;;;0.67;87.37
44351;BME280;62766;62.622;17.912;2023-01-15T10:38:01;97173.33;;;0.71;87.28
44351;BME280;62766;62.622;17.912;2023-01-15T10:40:43;97171.03;;;0.63;87.14
44351;BME280;62766;62.622;17.912;2023-01-15T10:43:21;97155.69;;;0.70;86.95
44351;BME280;62766;62.622;17.912;2023-01-15T10:45:55;97143.95;;;0.68;86.81
44351;BME280;62766;62.622;17.912;2023-01-15T10:48:29;97130.16;;;0.70;87.09
44351;BME280;62766;62.622;17.912;2023-01-15T10:51:05;97120.89;;;0.57;87.49
44351;BME280;62766;62.622;17.912;2023-01-15T10:53:43;97112.69;;;0.63;87.63
44351;BME280;62766;62.622;17.912;2023-01-15T10:56:17;97102.03;;;0.62;87.25
44351;BME280;62766;62.622;17.912;2023-01-15T10:58:54;97092.36;;;0.58;87.14
44351;BME280;62766;62.622;17.912;2023-01-15T11:03:31;97071.42;;;0.48;87.65
44351;BME280;62766;62.622;17.912;2023-01-15T11:06:03;97061.21;;;0.49;87.51
44351;BME280;62766;62.622;17.912;2023-01-15T11:08:34;97054.64;;;0.55;87.26
44351;BME280;62766;62.622;17.912;2023-01-15T11:11:15;97042.52;;;0.56;87.07
44351;BME280;62766;62.622;17.912;2023-01-15T11:13:52;97034.75;;;0.59;86.86
44351;BME280;62766;62.622;17.912;2023-01-15T11:16:24;97027.37;;;0.65;86.67
44351;BME280;62766;62.622;17.912;2023-01-15T11:18:55;97017.78;;;0.75;86.36
44351;BME280;62766;62.622;17.912;2023-01-15T11:21:24;97010.92;;;0.72;86.11
44351;BME280;62766;62.622;17.912;2023-01-15T11:23:54;97005.14;;;0.82;86.23
44351;BME280;62766;62.622;17.912;2023-01-15T11:26:26;96995.52;;;0.65;86.12
44351;BME280;62766;62.622;17.912;2023-01-15T11:28:57;96993.15;;;0.68;86.05
44351;BME280;62766;62.622;17.912;2023-01-15T11:31:35;96987.33;;;0.73;85.95
44351;BME280;62766;62.622;17.912;2023-01-15T11:34:13;96982.36;;;0.69;85.86
44351;BME280;62766;62.622;17.912;2023-01-15T11:36:43;96973.75;;;0.81;86.03
44351;BME280;62766;62.622;17.912;2023-01-15T11:39:28;96970.91;;;0.79;85.89
44351;BME280;62766;62.622;17.912;2023-01-15T11:41:58;96967.26;;;0.82;85.91
44351;BME280;62766;62.622;17.912;2023-01-15T11:44:28;96962.77;;;0.88;85.76
44351;BME280;62766;62.622;17.912;2023-01-15T11:46:56;96960.72;;;0.94;85.28
44351;BME280;62766;62.622;17.912;2023-01-15T11:49:26;96961.24;;;1.10;84.91
44351;BME280;62766;62.622;17.912;2023-01-15T11:51:56;96964.55;;;1.09;84.31
44351;BME280;62766;62.622;17.912;2023-01-15T11:54:26;96960.95;;;1.22;83.92
44351;BME280;62766;62.622;17.912;2023-01-15T11:56:57;96965.49;;;1.12;83.94
44351;BME280;62766;62.622;17.912;2023-01-15T11:59:26;96969.62;;;1.15;83.82
44351;BME280;62766;62.622;17.912;2023-01-15T12:01:57;96967.68;;;1.28;83.33
44351;BME280;62766;62.622;17.912;2023-01-15T12:04:31;96968.46;;;1.25;83.23
44351;BME280;62766;62.622;17.912;2023-01-15T12:07:03;96972.82;;;1.35;83.08
44351;BME280;62766;62.622;17.912;2023-01-15T12:09:42;96970.31;;;1.40;82.80
44351;BME280;62766;62.622;17.912;2023-01-15T12:12:21;96972.57;;;1.49;82.48
44351;BME280;62766;62.622;17.912;2023-01-15T12:15:06;96973.37;;;1.57;82.05
44351;BME280;62766;62.622;17.912;2023-01-15T12:18:55;96975.05;;;1.63;81.65
44351;BME280;62766;62.622;17.912;2023-01-15T12:21:36;96966.91;;;1.98;80.21
44351;BME280;62766;62.622;17.912;2023-01-15T12:24:36;96962.54;;;2.12;78.60
44351;BME280;62766;62.622;17.912;2023-01-15T12:27:20;96955.39;;;2.13;77.80
44351;BME280;62766;62.622;17.912;2023-01-15T12:29:53;96951.31;;;2.15;77.51
44351;BME280;62766;62.622;17.912;2023-01-15T12:32:30;96950.54;;;2.09;76.65
44351;BME280;62766;62.622;17.912;2023-01-15T12:35:04;96952.85;;;2.01;76.28
44351;BME280;62766;62.622;17.912;2023-01-15T12:37:39;96952.44;;;1.86;76.65
44351;BME280;62766;62.622;17.912;2023-01-15T12:40:19;96959.90;;;1.99;76.19
44351;BME280;62766;62.622;17.912;2023-01-15T12:42:52;96970.81;;;1.87;76.73
44351;BME280;62766;62.622;17.912;2023-01-15T12:45:26;96970.60;;;1.81;76.85
44351;BME280;62766;62.622;17.912;2023-01-15T12:48:02;96972.77;;;1.78;76.93
44351;BME280;62766;62.622;17.912;2023-01-15T12:50:39;96981.10;;;1.74;77.15
44351;BME280;62766;62.622;17.912;2023-01-15T12:53:14;96986.36;;;1.71;77.19
44351;BME280;62766;62.622;17.912;2023-01-15T12:55:49;96994.15;;;1.68;77.57
44351;BME280;62766;62.622;17.912;2023-01-15T12:58:33;97001.35;;;1.58;77.84
44351;BME280;62766;62.622;17.912;2023-01-15T13:01:11;97000.79;;;1.39;78.42
44351;BME280;62766;62.622;17.912;2023-01-15T13:03:59;97004.28;;;1.37;78.77
44351;BME280;62766;62.622;17.912;2023-01-15T13:06:37;97010.35;;;1.47;78.88
44351;BME280;62766;62.622;17.912;2023-01-15T13:09:16;97013.12;;;1.35;79.16
44351;BME280;62766;62.622;17.912;2023-01-15T13:11:50;97018.88;;;1.57;79.05
44351;BME280;62766;62.622;17.912;2023-01-15T13:14:19;97021.52;;;1.45;79.01
44351;BME280;62766;62.622;17.912;2023-01-15T13:16:53;97024.96;;;1.43;79.19
44351;BME280;62766;62.622;17.912;2023-01-15T13:19:33;97029.61;;;1.41;79.18
44351;BME280;62766;62.622;17.912;2023-01-15T13:22:07;97029.73;;;1.43;79.33
44351;BME280;62766;62.622;17.912;2023-01-15T13:24:51;97035.12;;;1.52;79.33